createdAt,value
2018-07-06T00:00:58.705Z,19.10
2018-07-06T00:22:48.254Z,19.10
2018-07-06T00:25:52.634Z,18.90
2018-07-06T01:02:39.857Z,18.80
2018-07-06T01:05:21.594Z,18.90
2018-07-06T01:08:05.255Z,18.90
2018-07-06T01:26:53.294Z,18.80
2018-07-06T01:29:34.005Z,18.80
2018-07-06T01:32:25.314Z,18.80
2018-07-06T01:38:22.947Z,18.80
2018-07-06T01:41:29.397Z,18.80
2018-07-06T01:44:28.345Z,18.70
2018-07-06T01:47:40.438Z,18.70
2018-07-06T03:05:46.343Z,18.60
2018-07-06T04:22:10.246Z,18.60
2018-07-06T04:29:56.814Z,18.20
2018-07-06T04:32:38.924Z,18.20
2018-07-06T04:39:31.053Z,18.20
2018-07-06T04:42:13.197Z,18.20
2018-07-06T04:44:55.518Z,18.10
2018-07-06T04:47:38.308Z,18.10
2018-07-06T04:50:25.988Z,18.00
2018-07-06T04:53:17.438Z,17.90
2018-07-06T04:55:58.664Z,17.90
2018-07-06T05:14:27.573Z,18.00
2018-07-06T05:17:09.445Z,17.90
2018-07-06T05:19:50.150Z,17.90
2018-07-06T05:22:31.282Z,17.90
2018-07-06T05:25:13.401Z,18.00
2018-07-06T05:27:55.402Z,18.10
2018-07-06T05:30:36.092Z,18.00
2018-07-06T05:33:43.392Z,18.10
2018-07-06T05:49:30.618Z,17.90
2018-07-06T05:52:13.037Z,18.00
2018-07-06T05:55:07.557Z,17.90
2018-07-06T05:57:49.619Z,17.90
2018-07-06T06:00:31.628Z,18.00
2018-07-06T06:03:13.057Z,17.90
2018-07-06T06:05:55.097Z,17.90
2018-07-06T06:08:26.297Z,18.10
2018-07-06T06:15:17.996Z,17.90
2018-07-06T06:17:50.155Z,17.80
2018-07-06T06:33:38.872Z,17.80
2018-07-06T06:36:15.529Z,17.80
2018-07-06T06:38:46.697Z,18.20
2018-07-06T06:54:22.243Z,18.10
2018-07-06T06:56:55.312Z,18.10
2018-07-06T06:59:26.423Z,18.10
2018-07-06T07:01:57.014Z,18.10
2018-07-06T07:04:30.692Z,18.10
2018-07-06T07:07:03.381Z,18.10
2018-07-06T07:09:34.231Z,18.10
2018-07-06T07:12:07.832Z,18.10
2018-07-06T07:14:38.240Z,18.20
2018-07-06T07:17:21.741Z,18.20
2018-07-06T07:19:54.180Z,18.20
2018-07-06T07:22:56.681Z,18.20
2018-07-06T07:25:32.964Z,18.20
2018-07-06T07:28:05.438Z,18.20
2018-07-06T07:31:12.285Z,18.20
2018-07-06T07:33:49.961Z,18.20
2018-07-06T07:36:37.683Z,18.20
2018-07-06T07:39:09.492Z,18.20
2018-07-06T07:41:42.125Z,18.20
2018-07-06T07:44:14.171Z,18.20
2018-07-06T07:47:16.914Z,18.20
2018-07-06T07:49:48.902Z,18.20
2018-07-06T07:52:30.614Z,18.10
2018-07-06T07:55:02.751Z,18.10
2018-07-06T08:00:04.412Z,18.20
2018-07-06T08:02:37.263Z,18.20
2018-07-06T08:05:09.623Z,18.30
2018-07-06T08:07:40.773Z,18.30
2018-07-06T08:35:48.403Z,18.40
2018-07-06T08:38:27.678Z,18.40
2018-07-06T08:40:59.875Z,18.40
2018-07-06T09:55:36.387Z,18.30
2018-07-06T09:58:15.405Z,18.20
2018-07-06T10:00:58.951Z,18.30
2018-07-06T10:03:39.681Z,18.30
2018-07-06T10:06:19.822Z,18.30
2018-07-06T10:09:02.557Z,18.40
2018-07-06T10:12:32.468Z,18.50
2018-07-06T10:15:19.275Z,18.50
2018-07-06T10:17:53.294Z,18.60
2018-07-06T10:20:37.078Z,18.60
2018-07-06T10:23:17.305Z,18.60
2018-07-06T10:25:57.790Z,18.50
2018-07-06T10:28:39.556Z,18.60
2018-07-06T10:31:20.172Z,18.60
2018-07-06T10:33:59.756Z,18.60
2018-07-06T10:36:38.962Z,18.70
2018-07-06T10:39:24.060Z,18.80
2018-07-06T10:42:06.374Z,18.80
2018-07-06T10:44:38.836Z,18.80
2018-07-06T10:47:18.713Z,18.80
2018-07-06T10:49:58.254Z,18.80
2018-07-06T10:52:36.086Z,18.80
2018-07-06T10:55:13.725Z,18.90
2018-07-06T10:57:49.761Z,19.00
2018-07-06T11:00:25.460Z,19.10
2018-07-06T11:03:05.660Z,19.10
2018-07-06T11:05:44.801Z,19.10
2018-07-06T11:08:29.818Z,19.20
2018-07-06T11:11:25.351Z,19.30
2018-07-06T11:14:13.739Z,19.20
2018-07-06T11:17:10.361Z,19.30
2018-07-06T11:32:52.299Z,19.20
2018-07-06T11:35:34.194Z,19.10
2018-07-06T11:38:10.082Z,19.20
2018-07-06T11:40:45.488Z,19.10
2018-07-06T11:43:24.841Z,19.20
2018-07-06T11:50:43.799Z,19.20
2018-07-06T11:56:01.484Z,19.30
2018-07-06T11:58:55.624Z,19.30
2018-07-06T12:16:41.848Z,19.40
2018-07-06T12:19:20.808Z,19.30
2018-07-06T12:22:05.296Z,18.80
2018-07-06T12:24:44.407Z,18.70
2018-07-06T12:27:17.877Z,18.70
2018-07-06T12:29:49.997Z,18.70
2018-07-06T12:32:30.736Z,18.80
2018-07-06T12:35:10.894Z,18.90
2018-07-06T12:37:50.177Z,18.80
2018-07-06T12:40:44.027Z,18.80
2018-07-06T12:43:23.024Z,18.80
2018-07-06T12:46:02.202Z,18.90
2018-07-06T12:48:38.775Z,18.90
2018-07-06T12:51:11.528Z,18.90
2018-07-06T12:53:49.345Z,18.90
2018-07-06T12:56:26.458Z,18.90
2018-07-06T12:59:05.688Z,19.00
2018-07-06T13:01:45.534Z,19.00
2018-07-06T13:04:25.282Z,19.00
2018-07-06T13:07:02.233Z,19.10
2018-07-06T13:09:45.832Z,19.10
2018-07-06T13:12:25.446Z,19.10
2018-07-06T13:15:02.555Z,19.20
2018-07-06T13:17:41.895Z,19.10
2018-07-06T13:20:21.360Z,19.10
2018-07-06T13:23:00.664Z,19.10
2018-07-06T13:25:44.611Z,19.10
2018-07-06T13:28:31.055Z,19.00
2018-07-06T13:31:07.488Z,19.10
2018-07-06T13:33:49.272Z,19.00
2018-07-06T13:36:23.548Z,19.10
2018-07-06T13:38:57.314Z,19.10
2018-07-06T13:41:38.892Z,19.10
2018-07-06T13:44:13.133Z,19.10
2018-07-06T13:46:49.543Z,19.00
2018-07-06T13:49:26.482Z,19.00
2018-07-06T13:52:05.436Z,19.00
2018-07-06T13:54:41.631Z,19.00
2018-07-06T13:57:19.766Z,19.00
2018-07-06T13:59:56.121Z,18.90
2018-07-06T15:19:18.688Z,18.80
2018-07-06T15:29:33.904Z,18.40
2018-07-06T15:32:25.051Z,18.40
2018-07-06T15:35:04.935Z,18.50
2018-07-06T15:37:44.227Z,18.50
2018-07-06T15:40:24.041Z,18.50
2018-07-06T15:46:26.317Z,18.50
2018-07-06T15:51:51.000Z,18.60
2018-07-06T15:54:30.130Z,18.50
2018-07-06T15:57:17.413Z,18.60
2018-07-06T15:59:57.938Z,18.60
2018-07-06T16:02:37.114Z,18.70
2018-07-06T16:05:17.358Z,18.60
2018-07-06T16:07:56.666Z,18.60
2018-07-06T16:10:54.355Z,18.60
2018-07-06T16:13:37.814Z,18.60
2018-07-06T16:16:16.991Z,18.60
2018-07-06T16:18:56.504Z,18.60
2018-07-06T16:26:55.156Z,18.50
2018-07-06T16:29:34.743Z,18.50
2018-07-06T16:32:13.714Z,18.40
2018-07-06T16:34:53.054Z,18.50
2018-07-06T16:37:28.856Z,18.50
2018-07-06T16:40:05.267Z,18.50
2018-07-06T16:45:22.808Z,18.60
2018-07-06T16:48:03.676Z,18.50
2018-07-06T16:50:42.892Z,18.50
2018-07-06T16:53:20.014Z,18.60
2018-07-06T16:55:57.090Z,18.50
2018-07-06T16:58:34.564Z,18.50
2018-07-06T17:01:12.372Z,18.40
2018-07-06T17:03:54.082Z,18.40
2018-07-06T17:06:34.761Z,18.40
2018-07-06T17:09:14.026Z,18.30
2018-07-06T17:11:50.135Z,18.40
2018-07-06T17:14:29.479Z,18.40
2018-07-06T17:17:06.748Z,18.30
2018-07-06T17:19:45.996Z,18.40
2018-07-06T17:22:26.301Z,18.30
2018-07-06T17:25:05.800Z,18.30
2018-07-06T17:27:46.259Z,18.30
2018-07-06T17:30:25.021Z,18.30
2018-07-06T17:33:04.276Z,18.30
2018-07-06T17:35:45.167Z,18.30
2018-07-06T17:38:20.991Z,18.20
2018-07-06T17:43:27.467Z,18.20
2018-07-06T17:46:00.866Z,18.20
2018-07-06T17:51:10.182Z,18.20
2018-07-06T17:53:49.523Z,18.30
2018-07-06T17:56:28.799Z,18.30
2018-07-06T17:59:08.056Z,18.30
2018-07-06T18:01:47.604Z,18.30
2018-07-06T18:04:28.543Z,18.20
2018-07-06T18:07:08.337Z,18.20
2018-07-06T18:09:47.730Z,18.10
2018-07-06T18:12:26.582Z,18.10
2018-07-06T18:15:03.262Z,18.10
2018-07-06T18:17:43.012Z,18.00
2018-07-06T18:20:22.263Z,18.00
2018-07-06T18:23:02.081Z,18.10
2018-07-06T18:25:45.507Z,18.00
2018-07-06T18:28:24.660Z,18.10
2018-07-06T18:31:04.257Z,18.00
2018-07-06T18:33:42.282Z,18.00
2018-07-06T18:36:17.617Z,18.00
2018-07-06T18:38:57.661Z,17.90
2018-07-06T18:41:38.359Z,18.00
2018-07-06T18:46:56.567Z,18.00
2018-07-06T18:49:35.764Z,18.00
2018-07-06T18:52:15.118Z,18.00
2018-07-06T18:54:54.434Z,18.00
2018-07-06T18:57:29.404Z,18.00
2018-07-06T19:00:06.091Z,18.00
2018-07-06T19:02:41.779Z,18.00
2018-07-06T19:05:19.885Z,18.00
2018-07-06T19:07:57.255Z,17.90
2018-07-06T19:10:34.219Z,18.00
2018-07-06T19:13:13.380Z,17.90
2018-07-06T19:15:45.490Z,17.90
2018-07-06T19:18:24.562Z,17.90
2018-07-06T19:21:03.509Z,17.80
2018-07-06T19:23:43.589Z,17.80
2018-07-06T19:26:31.266Z,17.80
2018-07-06T19:29:07.698Z,17.70
2018-07-06T19:31:47.522Z,17.70
2018-07-06T19:34:26.841Z,17.70
2018-07-06T19:36:59.128Z,17.70
2018-07-06T19:39:41.935Z,17.60
2018-07-06T19:42:21.245Z,17.60
2018-07-06T19:44:58.674Z,17.60
2018-07-06T19:47:37.001Z,17.60
2018-07-06T19:50:24.424Z,17.60
2018-07-06T19:52:56.749Z,17.60
2018-07-06T19:55:28.878Z,17.60
2018-07-06T19:58:07.835Z,17.60
2018-07-06T20:00:46.959Z,17.70
2018-07-06T20:03:25.788Z,17.70
2018-07-06T20:06:05.329Z,17.70
2018-07-06T20:08:42.013Z,17.70
2018-07-06T20:11:15.782Z,17.70
2018-07-06T20:14:02.821Z,17.70
2018-07-06T20:19:17.397Z,17.70
2018-07-06T20:21:49.312Z,17.60
2018-07-06T20:24:21.771Z,17.60
2018-07-06T20:27:00.500Z,17.60
2018-07-06T20:29:33.595Z,17.70
2018-07-06T20:32:13.481Z,17.80
2018-07-06T20:34:52.844Z,17.70
2018-07-06T20:37:31.956Z,17.70
2018-07-06T20:40:13.165Z,17.70
2018-07-06T20:42:53.762Z,17.70
2018-07-06T20:45:33.491Z,17.70
2018-07-06T20:48:03.681Z,17.70
2018-07-06T20:50:36.392Z,17.70
2018-07-06T20:53:09.121Z,17.70
2018-07-06T20:55:41.192Z,17.70
2018-07-06T20:58:20.398Z,17.70
2018-07-06T21:00:52.251Z,17.80
2018-07-06T21:03:24.469Z,17.70
2018-07-06T21:05:57.659Z,17.60
2018-07-06T21:08:29.393Z,17.60
2018-07-06T21:11:00.964Z,17.60
2018-07-06T21:13:40.826Z,17.50
2018-07-06T21:16:19.585Z,17.60
2018-07-06T21:18:58.297Z,17.60
2018-07-06T21:21:37.361Z,17.50
2018-07-06T21:24:08.868Z,17.60
2018-07-06T21:26:47.837Z,17.60
2018-07-06T21:29:19.656Z,17.50
2018-07-06T21:31:49.862Z,17.50
2018-07-06T21:34:22.312Z,17.50
2018-07-06T21:37:01.544Z,17.40
2018-07-06T21:39:40.784Z,17.40
2018-07-06T21:42:20.542Z,17.50
2018-07-06T21:44:52.425Z,17.40
2018-07-06T21:47:24.375Z,17.50
2018-07-06T21:50:03.497Z,17.50
2018-07-06T21:52:42.699Z,17.50
2018-07-06T21:55:16.027Z,17.50
2018-07-06T21:57:55.745Z,17.50
2018-07-06T22:00:43.301Z,17.50
2018-07-06T22:03:14.001Z,17.50
2018-07-06T22:05:45.444Z,17.50
2018-07-06T22:08:17.661Z,17.50
2018-07-06T22:10:49.936Z,17.50
2018-07-06T22:13:26.684Z,17.50
